createdAt,value
2018-02-23T00:01:29.980Z,27.27
2018-02-23T00:03:57.638Z,25.63
2018-02-23T00:06:25.153Z,27.33
2018-02-23T00:08:52.669Z,28.03
2018-02-23T00:11:20.187Z,27.00
2018-02-23T00:13:47.669Z,27.27
2018-02-23T00:16:15.180Z,26.67
2018-02-23T00:18:42.717Z,26.87
2018-02-23T00:21:10.219Z,28.43
2018-02-23T00:23:38.494Z,27.47
2018-02-23T00:26:06.787Z,28.13
2018-02-23T00:28:34.303Z,27.37
2018-02-23T00:31:01.930Z,28.17
2018-02-23T00:33:29.463Z,28.00
2018-02-23T00:35:57.716Z,26.97
2018-02-23T00:38:26.717Z,26.97
2018-02-23T00:40:55.564Z,28.47
2018-02-23T00:43:23.092Z,27.93
2018-02-23T00:45:51.339Z,28.10
2018-02-23T00:48:18.863Z,28.73
2018-02-23T00:50:46.382Z,28.13
2018-02-23T00:53:13.900Z,27.50
2018-02-23T00:55:41.393Z,27.63
2018-02-23T00:58:08.916Z,27.57
2018-02-23T01:00:36.401Z,27.30
2018-02-23T01:03:03.940Z,28.10
2018-02-23T01:05:31.508Z,27.63
2018-02-23T01:07:58.996Z,27.37
2018-02-23T01:10:26.945Z,26.40
2018-02-23T01:12:54.425Z,26.73
2018-02-23T01:15:21.966Z,26.43
2018-02-23T01:17:49.454Z,26.47
2018-02-23T01:20:16.974Z,29.07
2018-02-23T01:22:45.272Z,27.53
2018-02-23T01:25:12.778Z,25.53
2018-02-23T01:27:40.300Z,26.93
2018-02-23T01:30:07.863Z,28.03
2018-02-23T01:32:35.428Z,28.33
2018-02-23T01:35:02.903Z,25.63
2018-02-23T01:37:30.386Z,25.73
2018-02-23T01:39:58.230Z,27.00
2018-02-23T01:42:25.718Z,27.20
2018-02-23T01:44:53.249Z,28.67
2018-02-23T01:47:20.799Z,26.93
2018-02-23T01:49:49.046Z,27.60
2018-02-23T01:52:17.292Z,27.43
2018-02-23T01:54:44.831Z,26.33
2018-02-23T01:57:12.360Z,26.20
2018-02-23T01:59:39.887Z,27.33
2018-02-23T02:02:07.626Z,27.03
2018-02-23T02:04:35.112Z,25.90
2018-02-23T02:07:02.654Z,26.80
2018-02-23T02:09:30.187Z,26.40
2018-02-23T02:11:58.502Z,24.47
2018-02-23T02:14:26.008Z,24.53
2018-02-23T02:16:53.516Z,25.53
2018-02-23T02:19:21.086Z,26.10
2018-02-23T02:21:48.649Z,23.93
2018-02-23T02:24:16.192Z,25.93
2018-02-23T02:26:45.443Z,24.03
2018-02-23T02:29:12.961Z,25.33
2018-02-23T02:31:41.235Z,24.60
2018-02-23T02:34:09.511Z,23.93
2018-02-23T02:36:37.763Z,22.47
2018-02-23T02:39:05.312Z,22.77
2018-02-23T02:41:32.821Z,23.77
2018-02-23T02:44:01.098Z,23.13
2018-02-23T02:46:29.379Z,24.77
2018-02-23T02:48:57.691Z,25.13
2018-02-23T02:51:25.257Z,24.47
2018-02-23T02:53:52.815Z,23.53
2018-02-23T02:56:20.291Z,22.33
2018-02-23T02:58:47.846Z,22.70
2018-02-23T03:01:15.335Z,22.97
2018-02-23T03:03:42.814Z,24.13
2018-02-23T03:06:10.333Z,22.93
2018-02-23T03:08:37.897Z,22.80
2018-02-23T03:11:05.420Z,24.17
2018-02-23T03:13:32.894Z,20.97
2018-02-23T03:16:01.165Z,23.37
2018-02-23T03:18:29.483Z,22.57
2018-02-23T03:20:57.150Z,21.80
2018-02-23T03:23:24.683Z,19.27
2018-02-23T03:25:52.926Z,21.27
2018-02-23T03:28:20.457Z,21.50
2018-02-23T03:30:48.126Z,22.03
2018-02-23T03:33:15.610Z,20.70
2018-02-23T03:35:43.090Z,22.17
2018-02-23T03:38:10.707Z,21.97
2018-02-23T03:40:38.227Z,21.40
2018-02-23T03:43:05.740Z,21.70
2018-02-23T03:45:33.296Z,22.93
2018-02-23T03:48:00.819Z,22.40
2018-02-23T03:50:28.331Z,21.87
2018-02-23T03:52:55.891Z,22.83
2018-02-23T03:55:23.449Z,21.60
2018-02-23T03:57:50.966Z,22.13
2018-02-23T04:00:18.578Z,22.07
2018-02-23T04:02:46.095Z,22.37
2018-02-23T04:05:13.613Z,22.63
2018-02-23T04:07:41.861Z,21.80
2018-02-23T04:10:10.147Z,23.17
2018-02-23T04:12:38.431Z,21.27
2018-02-23T04:15:06.733Z,22.30
2018-02-23T04:17:34.210Z,22.83
2018-02-23T04:20:01.724Z,22.90
2018-02-23T04:22:29.997Z,20.77
2018-02-23T04:24:57.517Z,22.63
2018-02-23T04:27:25.032Z,22.43
2018-02-23T04:29:53.337Z,21.63
2018-02-23T04:32:21.758Z,23.90
2018-02-23T04:34:49.289Z,22.23
2018-02-23T04:37:16.831Z,22.93
2018-02-23T04:39:45.124Z,22.13
2018-02-23T04:42:12.594Z,22.23
2018-02-23T04:44:40.129Z,22.17
2018-02-23T04:47:08.438Z,22.97
2018-02-23T04:49:35.922Z,21.67
2018-02-23T04:52:03.459Z,23.43
2018-02-23T04:54:30.976Z,22.67
2018-02-23T04:56:58.454Z,24.17
2018-02-23T04:59:26.778Z,22.30
2018-02-23T05:01:54.258Z,20.60
2018-02-23T05:04:21.796Z,22.23
2018-02-23T05:06:49.566Z,22.80
2018-02-23T05:09:17.087Z,23.23
2018-02-23T05:11:45.359Z,21.87
2018-02-23T05:14:12.845Z,24.20
2018-02-23T05:16:41.119Z,23.40
2018-02-23T05:19:09.372Z,22.13
2018-02-23T05:21:36.879Z,23.77
2018-02-23T05:24:04.486Z,23.40
2018-02-23T05:26:31.943Z,23.60
2018-02-23T05:28:59.586Z,23.27
2018-02-23T05:31:27.107Z,23.00
2018-02-23T05:33:54.608Z,22.13
2018-02-23T05:36:22.098Z,23.53
2018-02-23T05:38:49.615Z,22.70
2018-02-23T05:41:17.860Z,21.90
2018-02-23T05:43:45.477Z,24.17
2018-02-23T05:46:12.949Z,22.17
2018-02-23T05:48:40.430Z,22.07
2018-02-23T05:51:07.962Z,22.17
2018-02-23T05:53:35.450Z,20.43
2018-02-23T05:56:02.932Z,23.27
2018-02-23T05:58:30.558Z,22.93
2018-02-23T06:00:58.325Z,23.30
2018-02-23T06:03:25.798Z,23.43
2018-02-23T06:05:53.355Z,22.17
2018-02-23T06:08:20.876Z,22.17
2018-02-23T06:10:48.396Z,23.40
2018-02-23T06:13:15.944Z,22.80
2018-02-23T06:15:49.107Z,22.43
2018-02-23T06:18:23.219Z,22.17
2018-02-23T06:20:51.465Z,23.87
2018-02-23T06:23:19.097Z,21.27
2018-02-23T06:25:46.631Z,27.60
2018-02-23T06:28:14.888Z,24.27
2018-02-23T06:30:42.367Z,23.13
2018-02-23T06:33:10.622Z,23.37
2018-02-23T06:35:38.098Z,23.33
2018-02-23T06:38:05.642Z,21.80
2018-02-23T06:40:33.165Z,23.03
2018-02-23T06:43:00.711Z,22.53
2018-02-23T06:45:28.954Z,23.90
2018-02-23T06:47:56.523Z,21.10
2018-02-23T06:50:24.031Z,24.63
2018-02-23T06:52:51.502Z,21.60
2018-02-23T06:55:19.011Z,22.93
2018-02-23T06:57:46.491Z,21.50
2018-02-23T07:00:14.787Z,22.70
2018-02-23T07:02:42.326Z,23.53
2018-02-23T07:05:10.567Z,22.73
2018-02-23T07:07:38.042Z,22.77
2018-02-23T07:10:05.598Z,24.57
2018-02-23T07:12:33.116Z,22.37
2018-02-23T07:15:01.395Z,19.33
2018-02-23T07:17:29.691Z,22.63
2018-02-23T07:19:57.178Z,22.53
2018-02-23T07:22:24.691Z,24.17
2018-02-23T07:24:53.011Z,23.37
2018-02-23T07:27:20.490Z,24.00
2018-02-23T07:29:47.966Z,23.07
2018-02-23T07:32:15.475Z,23.17
2018-02-23T07:34:42.987Z,19.83
2018-02-23T07:37:10.462Z,22.57
2018-02-23T07:39:37.962Z,23.10
2018-02-23T07:42:05.479Z,22.67
2018-02-23T07:44:32.996Z,23.33
2018-02-23T07:47:00.564Z,23.30
2018-02-23T07:49:28.046Z,21.17
2018-02-23T07:51:55.530Z,22.83
2018-02-23T07:54:23.077Z,22.23
2018-02-23T07:56:50.589Z,23.43
2018-02-23T07:59:18.883Z,23.50
2018-02-23T08:01:47.202Z,22.37
2018-02-23T08:04:14.710Z,23.50
2018-02-23T08:06:42.967Z,23.47
2018-02-23T08:09:10.503Z,24.50
2018-02-23T08:11:38.011Z,23.97
2018-02-23T08:14:05.486Z,21.27
2018-02-23T08:16:33.750Z,24.10
2018-02-23T08:19:01.267Z,23.73
2018-02-23T08:21:28.788Z,21.27
2018-02-23T08:23:57.193Z,22.43
2018-02-23T08:26:24.712Z,24.00
2018-02-23T08:28:52.970Z,23.17
2018-02-23T08:31:20.504Z,24.30
2018-02-23T08:33:47.975Z,25.00
2018-02-23T08:36:15.483Z,23.13
2018-02-23T08:38:42.995Z,22.47
2018-02-23T08:41:10.471Z,23.40
2018-02-23T08:43:37.955Z,23.80
2018-02-23T08:46:05.508Z,24.67
2018-02-23T08:48:33.005Z,25.03
2018-02-23T08:51:00.519Z,23.17
2018-02-23T08:53:28.063Z,24.67
2018-02-23T08:55:55.575Z,22.13
2018-02-23T08:58:23.197Z,23.17
2018-02-23T09:00:50.714Z,23.93
2018-02-23T09:03:18.973Z,24.07
2018-02-23T09:05:46.508Z,23.73
2018-02-23T09:08:14.374Z,23.07
2018-02-23T09:10:41.891Z,23.93
2018-02-23T09:13:09.446Z,24.27
2018-02-23T09:15:36.961Z,23.27
2018-02-23T09:18:04.479Z,22.87
2018-02-23T09:20:31.961Z,22.40
2018-02-23T09:23:00.234Z,22.47
2018-02-23T09:25:27.751Z,22.87
2018-02-23T09:27:55.281Z,23.17
2018-02-23T09:30:22.786Z,21.57
2018-02-23T09:32:57.035Z,22.80
2018-02-23T09:35:24.573Z,23.13
2018-02-23T09:37:52.047Z,24.07
2018-02-23T09:40:19.666Z,21.73
2018-02-23T09:42:47.208Z,23.77
2018-02-23T09:45:15.486Z,23.77
2018-02-23T09:47:43.726Z,21.67
2018-02-23T09:50:11.308Z,20.57
2018-02-23T09:52:38.727Z,22.63
2018-02-23T09:55:06.248Z,21.63
2018-02-23T09:57:34.555Z,23.97
2018-02-23T10:00:02.069Z,23.13
2018-02-23T10:02:29.576Z,22.00
2018-02-23T10:04:57.103Z,23.53
2018-02-23T10:07:24.611Z,24.53
2018-02-23T10:09:52.124Z,22.10
2018-02-23T10:12:19.633Z,25.07
2018-02-23T10:14:47.150Z,24.93
2018-02-23T10:17:14.673Z,23.53
2018-02-23T10:19:42.203Z,25.17
2018-02-23T10:22:10.480Z,24.03
2018-02-23T10:24:38.718Z,24.90
2018-02-23T10:27:06.235Z,23.50
2018-02-23T10:29:33.711Z,23.07
2018-02-23T10:32:01.215Z,22.53
2018-02-23T10:34:28.715Z,24.27
2018-02-23T10:36:56.955Z,25.17
2018-02-23T10:39:24.479Z,23.60
2018-02-23T10:41:52.007Z,24.63
2018-02-23T10:44:20.309Z,22.10
2018-02-23T10:46:47.833Z,24.50
2018-02-23T10:49:15.326Z,23.77
2018-02-23T10:51:43.592Z,23.33
2018-02-23T10:54:11.907Z,23.80
2018-02-23T10:56:39.596Z,22.80
2018-02-23T10:59:07.399Z,23.70
2018-02-23T11:01:35.144Z,23.50
2018-02-23T11:04:02.692Z,24.53
2018-02-23T11:06:30.404Z,23.27
2018-02-23T11:09:01.406Z,23.63
2018-02-23T11:11:30.791Z,23.17
2018-02-23T11:13:58.282Z,23.27
2018-02-23T11:16:25.764Z,23.33
2018-02-23T11:18:54.070Z,24.07
2018-02-23T11:21:22.359Z,24.03
2018-02-23T11:23:49.853Z,23.60
2018-02-23T11:26:17.411Z,23.53
2018-02-23T11:28:44.890Z,20.73
2018-02-23T11:31:12.419Z,22.60
2018-02-23T11:33:39.987Z,24.13
2018-02-23T11:36:07.495Z,24.07
2018-02-23T11:38:35.016Z,24.13
2018-02-23T11:41:02.701Z,24.97
2018-02-23T11:43:30.215Z,22.17
2018-02-23T11:50:35.094Z,24.67
2018-02-23T11:53:03.364Z,24.80
2018-02-23T11:55:30.903Z,24.37
2018-02-23T11:58:04.126Z,24.37
2018-02-23T12:00:32.434Z,24.13
2018-02-23T12:02:59.951Z,24.23
2018-02-23T12:05:27.550Z,23.30
2018-02-23T12:07:57.430Z,23.27
2018-02-23T12:10:24.947Z,23.87
2018-02-23T12:12:53.108Z,23.73
2018-02-23T12:15:20.690Z,24.00
2018-02-23T12:17:48.182Z,24.57
2018-02-23T12:20:15.754Z,23.87
2018-02-23T12:22:43.271Z,22.97
2018-02-23T12:25:10.849Z,22.37
2018-02-23T12:27:38.400Z,23.40
2018-02-23T12:30:05.977Z,23.53
2018-02-23T12:32:33.492Z,24.47
2018-02-23T12:35:01.039Z,22.67
2018-02-23T12:37:28.669Z,24.00
2018-02-23T12:39:56.146Z,24.93
2018-02-23T12:42:23.653Z,24.50
2018-02-23T12:44:51.150Z,24.17
2018-02-23T12:47:18.667Z,24.23
2018-02-23T12:49:46.171Z,23.93
2018-02-23T12:52:13.686Z,22.77
2018-02-23T12:54:41.167Z,24.40
2018-02-23T12:57:09.488Z,24.57
2018-02-23T12:59:36.968Z,24.90
2018-02-23T13:02:04.495Z,23.70
2018-02-23T13:04:32.835Z,25.93
2018-02-23T13:07:00.364Z,24.20
2018-02-23T13:09:27.835Z,25.17
2018-02-23T13:11:55.345Z,23.30
2018-02-23T13:14:28.513Z,24.83
2018-02-23T13:16:56.083Z,24.13
2018-02-23T13:19:23.571Z,24.83
2018-02-23T13:21:51.820Z,25.27
2018-02-23T13:24:19.354Z,23.00
2018-02-23T13:26:46.860Z,25.47
2018-02-23T13:29:14.370Z,23.83
2018-02-23T13:31:41.912Z,24.47
2018-02-23T13:34:10.188Z,24.57
2018-02-23T13:36:38.464Z,22.77
2018-02-23T13:39:06.743Z,23.37
2018-02-23T13:41:41.001Z,24.93
2018-02-23T13:44:08.486Z,24.63
2018-02-23T13:46:35.966Z,24.30
2018-02-23T13:49:04.952Z,24.27
2018-02-23T13:51:32.462Z,24.97
2018-02-23T13:54:05.490Z,25.03
2018-02-23T13:56:33.009Z,25.83
2018-02-23T13:59:00.544Z,24.90
2018-02-23T14:01:28.063Z,25.30
2018-02-23T14:03:55.554Z,24.87
2018-02-23T14:06:28.696Z,23.23
2018-02-23T14:08:56.383Z,22.43
2018-02-23T14:11:25.355Z,23.73
2018-02-23T14:13:52.903Z,23.93
2018-02-23T14:16:21.228Z,26.30
2018-02-23T14:18:48.743Z,23.70
2018-02-23T14:21:17.024Z,24.27
2018-02-23T14:23:45.475Z,25.67
2018-02-23T14:26:13.954Z,24.27
2018-02-23T14:28:41.468Z,24.07
2018-02-23T14:31:09.764Z,23.13
2018-02-23T14:33:37.250Z,24.67
2018-02-23T14:36:04.764Z,25.27
2018-02-23T14:38:33.073Z,24.80
2018-02-23T14:41:00.586Z,24.50
2018-02-23T14:43:28.071Z,25.03
2018-02-23T14:45:56.362Z,26.13
2018-02-23T14:51:29.291Z,23.83
2018-02-23T14:53:56.778Z,23.80
2018-02-23T14:56:24.259Z,25.17
2018-02-23T14:58:51.803Z,25.27
2018-02-23T15:01:19.320Z,24.57
2018-02-23T15:03:46.795Z,22.70
2018-02-23T15:06:15.534Z,25.03
2018-02-23T15:08:43.039Z,23.97
2018-02-23T15:11:10.523Z,26.00
2018-02-23T15:13:38.229Z,25.63
2018-02-23T15:16:06.478Z,26.00
2018-02-23T15:18:33.987Z,24.70
2018-02-23T15:21:02.292Z,25.20
2018-02-23T15:23:29.807Z,25.23
2018-02-23T15:25:57.353Z,26.47
2018-02-23T15:28:24.896Z,26.47
2018-02-23T15:31:04.235Z,24.90
2018-02-23T15:33:31.985Z,25.87
2018-02-23T15:35:59.498Z,26.93
2018-02-23T15:38:27.108Z,27.93
2018-02-23T15:40:54.664Z,25.40
2018-02-23T15:43:22.178Z,24.60
2018-02-23T15:45:49.658Z,26.13
2018-02-23T15:48:17.728Z,23.83
2018-02-23T15:50:56.963Z,27.57
2018-02-23T15:53:24.466Z,26.73
2018-02-23T15:55:52.028Z,26.80
2018-02-23T15:58:36.275Z,26.57
2018-02-23T16:01:03.784Z,25.13
2018-02-23T16:03:31.298Z,26.13
2018-02-23T16:05:58.814Z,27.30
2018-02-23T16:08:26.298Z,27.00
2018-02-23T16:10:54.538Z,23.33
2018-02-23T16:13:22.214Z,26.23
2018-02-23T16:15:49.725Z,24.47
2018-02-23T16:18:17.202Z,27.90
2018-02-23T16:20:44.752Z,25.93
2018-02-23T16:23:12.231Z,26.40
2018-02-23T16:25:39.707Z,26.43
2018-02-23T16:28:07.263Z,26.60
2018-02-23T16:30:34.737Z,26.40
2018-02-23T16:33:02.207Z,23.93
2018-02-23T16:35:29.767Z,26.33
2018-02-23T16:37:57.267Z,25.60
2018-02-23T16:40:25.564Z,25.93
2018-02-23T16:42:53.098Z,25.73
2018-02-23T16:45:20.691Z,25.27
2018-02-23T16:47:48.174Z,28.10
2018-02-23T16:50:15.724Z,26.57
2018-02-23T16:52:43.194Z,26.27
2018-02-23T16:55:10.674Z,26.43
2018-02-23T16:57:38.190Z,26.80
2018-02-23T17:00:06.436Z,27.47
2018-02-23T17:02:33.978Z,28.37
2018-02-23T17:05:01.530Z,28.93
2018-02-23T17:07:30.068Z,27.13
2018-02-23T17:09:59.095Z,24.80
2018-02-23T17:12:26.651Z,28.63
2018-02-23T17:14:55.253Z,27.40
2018-02-23T17:17:22.769Z,26.33
2018-02-23T17:19:50.315Z,29.43
2018-02-23T17:22:17.827Z,28.00
2018-02-23T17:24:46.076Z,28.67
2018-02-23T17:27:13.626Z,25.43
2018-02-23T17:29:41.147Z,28.17
2018-02-23T17:32:08.618Z,28.97
2018-02-23T17:34:36.350Z,29.20
2018-02-23T17:37:03.830Z,28.77
2018-02-23T17:39:32.078Z,28.20
2018-02-23T17:41:59.801Z,27.23
2018-02-23T17:44:27.463Z,27.53
2018-02-23T17:46:54.972Z,27.80
2018-02-23T17:49:22.515Z,26.03
2018-02-23T17:51:51.381Z,25.93
2018-02-23T17:54:18.893Z,27.70
2018-02-23T17:56:46.443Z,26.20
2018-02-23T17:59:13.970Z,27.00
2018-02-23T18:01:41.449Z,25.27
2018-02-23T18:04:08.989Z,28.70
2018-02-23T18:06:36.512Z,25.70
2018-02-23T18:09:03.994Z,27.80
2018-02-23T18:11:31.583Z,28.47
2018-02-23T18:13:59.100Z,26.50
2018-02-23T18:16:26.625Z,27.70
2018-02-23T18:18:54.258Z,24.90
2018-02-23T18:21:21.716Z,26.83
2018-02-23T18:23:50.008Z,27.40
2018-02-23T18:26:17.553Z,26.97
2018-02-23T18:28:45.799Z,28.03
2018-02-23T18:31:13.274Z,27.03
2018-02-23T18:33:40.792Z,27.00
2018-02-23T18:36:08.345Z,27.10
2018-02-23T18:38:35.863Z,26.63
2018-02-23T18:41:03.423Z,23.80
2018-02-23T18:43:30.907Z,25.43
2018-02-23T18:45:59.152Z,28.53
2018-02-23T18:48:26.679Z,25.80
2018-02-23T18:50:54.215Z,26.57
2018-02-23T18:53:22.510Z,25.80
2018-02-23T18:55:50.296Z,25.80
2018-02-23T18:58:17.819Z,26.57
2018-02-23T19:00:46.792Z,27.67
2018-02-23T19:03:14.328Z,25.50
2018-02-23T19:05:41.857Z,26.57
2018-02-23T19:08:10.112Z,26.70
2018-02-23T19:10:38.570Z,25.53
2018-02-23T19:13:06.079Z,27.27
2018-02-23T19:15:34.401Z,26.40
2018-02-23T19:18:01.949Z,25.13
2018-02-23T19:20:29.497Z,25.80
2018-02-23T19:22:57.737Z,24.87
2018-02-23T19:25:25.327Z,25.03
2018-02-23T19:27:53.611Z,25.63
2018-02-23T19:30:21.896Z,25.77
2018-02-23T19:32:50.192Z,24.43
2018-02-23T19:35:17.768Z,25.87
2018-02-23T19:37:45.289Z,25.60
2018-02-23T19:40:12.850Z,25.77
2018-02-23T19:42:40.344Z,25.07
2018-02-23T19:45:07.878Z,25.43
2018-02-23T19:47:35.555Z,25.60
2018-02-23T19:50:03.877Z,27.00
2018-02-23T19:52:31.405Z,27.27
2018-02-23T19:55:01.044Z,26.63
2018-02-23T19:57:28.710Z,25.70
2018-02-23T19:59:56.259Z,26.33
2018-02-23T20:02:23.954Z,25.73
2018-02-23T20:04:51.606Z,26.07
2018-02-23T20:07:20.196Z,25.87
2018-02-23T20:09:47.799Z,27.33
2018-02-23T20:12:15.378Z,26.97
2018-02-23T20:14:42.926Z,26.67
2018-02-23T20:17:10.545Z,28.03
2018-02-23T20:19:38.108Z,29.93
2018-02-23T20:22:05.598Z,28.43
2018-02-23T20:24:33.308Z,27.33
2018-02-23T20:27:01.567Z,27.83
2018-02-23T20:29:29.104Z,27.37
2018-02-23T20:31:56.665Z,24.57
2018-02-23T20:34:24.219Z,28.83
2018-02-23T20:36:51.752Z,27.90
2018-02-23T20:39:20.051Z,26.13
2018-02-23T20:41:47.623Z,28.23
2018-02-23T20:44:15.177Z,28.60
2018-02-23T20:46:42.717Z,28.47
2018-02-23T20:49:11.008Z,27.57
2018-02-23T20:51:39.255Z,29.43
2018-02-23T20:54:06.821Z,27.97
2018-02-23T20:56:34.360Z,29.83
2018-02-23T20:59:01.884Z,28.07
2018-02-23T21:01:29.419Z,28.33
2018-02-23T21:03:56.912Z,28.10
2018-02-23T21:06:24.405Z,28.40
2018-02-23T21:08:52.201Z,28.03
2018-02-23T21:11:19.687Z,29.30
2018-02-23T21:13:47.162Z,27.57
2018-02-23T21:16:15.516Z,29.20
2018-02-23T21:18:43.811Z,28.87
2018-02-23T21:21:12.090Z,28.70
2018-02-23T21:23:39.594Z,28.73
2018-02-23T21:26:08.326Z,29.70
2018-02-23T21:28:36.040Z,27.90
2018-02-23T21:31:03.551Z,29.17
2018-02-23T21:33:31.035Z,28.97
2018-02-23T21:35:58.559Z,29.23
2018-02-23T21:38:26.051Z,30.13
2018-02-23T21:40:53.560Z,29.63
2018-02-23T21:43:21.083Z,29.53
2018-02-23T21:45:48.639Z,29.10
2018-02-23T21:48:16.117Z,29.97
2018-02-23T21:50:44.400Z,29.10
2018-02-23T21:53:12.692Z,30.97
2018-02-23T21:55:40.938Z,31.00
2018-02-23T21:58:08.418Z,30.00
2018-02-23T22:00:36.708Z,30.00
2018-02-23T22:03:05.004Z,29.23
2018-02-23T22:05:32.727Z,30.87
2018-02-23T22:08:00.255Z,29.40
2018-02-23T22:10:27.766Z,28.97
2018-02-23T22:12:55.335Z,30.73
2018-02-23T22:15:23.614Z,31.13
2018-02-23T22:17:51.086Z,29.27
2018-02-23T22:20:19.333Z,27.60
2018-02-23T22:22:46.847Z,28.60
2018-02-23T22:25:14.319Z,29.57
2018-02-23T22:27:41.826Z,29.17
2018-02-23T22:30:09.326Z,29.10
2018-02-23T22:32:36.848Z,28.10
2018-02-23T22:35:04.330Z,27.30
2018-02-23T22:37:31.887Z,28.50
2018-02-23T22:40:00.135Z,27.77
2018-02-23T22:42:27.660Z,27.50
2018-02-23T22:44:55.218Z,28.57
2018-02-23T22:47:23.505Z,28.00
2018-02-23T22:49:51.875Z,27.70
2018-02-23T22:52:20.158Z,25.83
2018-02-23T22:54:48.407Z,27.17
2018-02-23T22:57:16.086Z,26.90
2018-02-23T22:59:44.383Z,28.63
2018-02-23T23:02:12.669Z,28.73
2018-02-23T23:04:40.252Z,28.07
2018-02-23T23:07:14.019Z,27.93
2018-02-23T23:09:41.494Z,27.43
2018-02-23T23:12:09.800Z,26.70
2018-02-23T23:14:38.045Z,26.80
2018-02-23T23:17:06.359Z,27.77
2018-02-23T23:19:33.876Z,25.83
2018-02-23T23:22:01.447Z,25.13
2018-02-23T23:24:29.154Z,25.87
2018-02-23T23:26:56.892Z,25.47
2018-02-23T23:29:25.178Z,27.03
2018-02-23T23:31:53.454Z,26.30
2018-02-23T23:34:21.695Z,26.23
2018-02-23T23:36:49.588Z,27.50
2018-02-23T23:39:17.066Z,25.93
2018-02-23T23:41:45.894Z,27.37
2018-02-23T23:44:13.746Z,26.47
2018-02-23T23:46:41.270Z,26.93
2018-02-23T23:49:08.778Z,27.70
2018-02-23T23:51:36.317Z,24.63
2018-02-23T23:54:05.315Z,24.13
2018-02-23T23:56:33.554Z,27.77
2018-02-23T23:59:01.063Z,27.80
